Hlavní strana
METAR-TAF:

METAR-TAF

Letiště :

Šiauliai, Litva

zeměpisná šířka: 55-53-38N, zeměpisná délka: 023-23-42E, výška: 135 m

Aktuální stav počasí

Zpráva byla vytvořena před 17 minutami, v 21:20 UTC
Jihojihozápadní vítr 10 kt
Teplota 4°C
Vlhkost vzduchu 75%
Tlak 1007 hPa
Viditelnost 10 km a více
Žádná oblačnost pod 1500 m, nevyskytují se cumulonimby.

METAR: EYSA 172120Z 20010KT CAVOK 04/00 Q1007 R14L/19//95 R14R/19//95 BLU NOSIG

Čas: 23:37 (21:37 UTC)

Předpověď počasí

Zpráva byla vytvořena před 1 hodinou a 36 minutami, v 20:01 UTC
Předpověď platná od 17 v 21 UTC do 18 v 06 UTC
Jihojihozápadní vítr 12 kt
Viditelnost: 9000 m
Polojasno ve výšce 4000 ft
Dočasný
od 18 v 02 UTC do 18 v 06 UTC
Polojasno ve výšce 1000 ft

TAF: EYSA 172001Z 1721/1806 21012KT 9000 SCT040 TEMPO 1802/1806 SCT010

Stav a předpovědi počasí z více než 4 000 letišť (zprávy METAR a TAF).

Červené a žluté tečky na mapě představují dostupné meteorologické stanice.

Když kurzor umístíte na tečku, zobrazí se název stanice.

Pak kliknutím zobrazíte stav a předpověď počasí.

Chcete-li změnit mapu, kliknutím na zelené tlačítko se znaménkem +mapu přiblížíte, kliknutím na zelené tlačítko se znaménkem – mapu oddálíte a kliknutím na zelené šipky přejdete na sousední mapy.


METAR-TAF: